Time;durP1;ratioP1;P1;durP2;ratioP2;P2;SDS_P1;SDS_P2;PMS_P1;PMS_P2;Temp;Humidity;BMP_temperature;BMP_pressure;BME280_temperature;BME280_humidity;BME280_pressure;Samples;Min_cycle;Max_cycle;Signal;HPM_P1;HPM_P2
2021/07/13 06:15:31;;;;;;;21.42;10.38;;;;;;;22.33;79.83;97934.80;1890560;76;22728;-62
2021/07/13 06:18:00;;;;;;;12.53;9.20;;;;;;;22.37;79.82;97934.30;1861594;77;20911;-63
2021/07/13 06:20:27;;;;;;;11.18;8.83;;;;;;;22.51;79.59;97937.23;1861289;77;21120;-62
2021/07/13 06:22:54;;;;;;;10.85;8.48;;;;;;;22.67;79.52;97935.70;1841321;77;20903;-65
2021/07/13 06:25:21;;;;;;;16.02;8.65;;;;;;;22.85;79.04;97933.40;1860000;77;21006;-61
2021/07/13 06:27:49;;;;;;;10.30;8.25;;;;;;;23.01;78.45;97932.61;1781971;79;21145;-63
2021/07/13 06:30:18;;;;;;;19.60;8.20;;;;;;;23.20;78.09;97928.16;1781080;80;20950;-61
2021/07/13 06:32:46;;;;;;;10.90;7.53;;;;;;;23.39;77.81;97922.53;1812762;79;21688;-63
2021/07/13 06:35:13;;;;;;;11.38;7.90;;;;;;;23.57;77.16;97927.02;1813041;79;20920;-62
2021/07/13 06:37:43;;;;;;;11.88;7.90;;;;;;;23.73;75.75;97919.34;1813171;79;20876;-62
2021/07/13 06:40:12;;;;;;;11.38;8.53;;;;;;;23.88;74.82;97920.25;1822085;78;21488;-60
2021/07/13 06:42:39;;;;;;;12.28;8.48;;;;;;;24.01;74.49;97913.88;1789193;80;21479;-64
2021/07/13 06:45:08;;;;;;;8.75;7.85;;;;;;;24.14;73.98;97926.14;1823191;78;21048;-62
2021/07/13 06:47:35;;;;;;;8.50;7.70;;;;;;;24.25;73.93;97919.56;1787818;80;21062;-59
2021/07/13 06:50:04;;;;;;;11.00;8.25;;;;;;;24.38;73.45;97916.70;1822071;78;21034;-62
2021/07/13 06:52:31;;;;;;;10.43;8.28;;;;;;;24.54;73.11;97919.73;1789042;80;21415;-65
2021/07/13 06:55:02;;;;;;;10.60;8.18;;;;;;;24.68;72.79;97919.80;1823087;78;20868;-61
2021/07/13 06:57:48;;;;;;;9.53;7.85;;;;;;;24.80;72.34;97920.87;1790670;78;21714;-61
2021/07/13 07:00:15;;;;;;;10.75;7.97;;;;;;;24.90;72.33;97911.31;1824982;78;20986;-61
2021/07/13 07:02:43;;;;;;;9.08;7.53;;;;;;;25.02;71.79;97908.81;1824331;78;21043;-62
2021/07/13 07:05:11;;;;;;;9.18;8.00;;;;;;;25.12;71.03;97909.44;1789665;80;20919;-63
2021/07/13 07:07:48;;;;;;;10.40;7.85;;;;;;;25.21;70.25;97913.95;1804409;78;20841;-66
2021/07/13 07:10:16;;;;;;;9.18;7.20;;;;;;;25.29;69.64;97910.08;1765506;79;21157;-63
2021/07/13 07:12:43;;;;;;;12.45;7.80;;;;;;;25.38;69.27;97909.69;1849741;77;21461;-63
2021/07/13 07:15:12;;;;;;;11.15;7.37;;;;;;;25.48;69.68;97908.38;1852050;77;21028;-63
2021/07/13 07:17:46;;;;;;;11.12;7.65;;;;;;;25.59;69.32;97909.16;1856726;77;21038;-62
2021/07/13 07:20:16;;;;;;;11.60;7.40;;;;;;;25.68;68.46;97908.19;1823815;78;20955;-60
2021/07/13 07:22:43;;;;;;;8.48;7.22;;;;;;;25.86;67.81;97901.34;1825577;77;21067;-64
2021/07/13 07:25:11;;;;;;;9.68;7.28;;;;;;;25.86;67.81;97901.34;1800234;79;21512;-63
2021/07/13 07:27:38;;;;;;;9.73;7.80;;;;;;;25.96;67.73;97902.49;1840575;77;21356;-63
2021/07/13 07:30:07;;;;;;;10.55;7.97;;;;;;;26.04;67.57;97897.20;1817316;78;21035;-59
2021/07/13 07:32:35;;;;;;;8.45;7.12;;;;;;;26.14;67.08;97897.82;1840107;77;21038;-62
2021/07/13 07:35:03;;;;;;;11.93;7.47;;;;;;;26.21;66.18;97904.09;1857887;77;21148;-63
2021/07/13 07:37:30;;;;;;;8.73;7.85;;;;;;;26.28;66.29;97901.91;1829365;77;21005;-63
2021/07/13 07:39:57;;;;;;;8.20;7.22;;;;;;;26.34;64.88;97902.48;1826370;78;20944;-60
2021/07/13 07:42:24;;;;;;;11.10;7.33;;;;;;;26.42;65.22;97905.42;1823400;78;21309;-63
2021/07/13 07:44:51;;;;;;;7.92;7.10;;;;;;;26.48;64.62;97898.91;1858223;77;21038;-61
2021/07/13 07:47:19;;;;;;;8.83;7.45;;;;;;;26.53;64.59;97902.63;1843834;77;22521;-61
2021/07/13 07:49:47;;;;;;;14.83;7.75;;;;;;;26.59;65.57;97899.66;1832879;77;20903;-64
2021/07/13 07:52:13;;;;;;;7.70;6.87;;;;;;;26.67;64.27;97904.54;1827876;77;20837;-65
2021/07/13 07:54:48;;;;;;;9.00;7.15;;;;;;;26.73;63.10;97906.50;1839179;77;20888;-64
2021/07/13 07:57:14;;;;;;;12.82;7.50;;;;;;;26.76;62.96;97900.80;1822088;78;20966;-61
2021/07/13 07:59:43;;;;;;;9.28;7.33;;;;;;;26.82;63.37;97902.77;1853842;77;21042;-65
2021/07/13 08:02:10;;;;;;;8.00;7.00;;;;;;;26.89;63.00;97905.48;1820694;78;20908;-65
2021/07/13 08:04:37;;;;;;;14.78;7.75;;;;;;;26.97;62.97;97907.00;1820920;78;20923;-64
2021/07/13 08:07:04;;;;;;;8.20;7.40;;;;;;;27.05;62.76;97907.17;1854373;77;20986;-61
2021/07/13 08:09:31;;;;;;;8.35;7.47;;;;;;;27.11;62.33;97909.67;1820928;78;21394;-65
2021/07/13 08:11:59;;;;;;;11.90;7.37;;;;;;;27.11;62.33;97909.67;1821221;78;21005;-63
2021/07/13 08:14:26;;;;;;;9.80;6.90;;;;;;;27.15;61.63;97916.55;1856072;77;21431;-64
2021/07/13 08:16:55;;;;;;;12.93;7.35;;;;;;;27.20;60.84;97911.22;1801101;78;20952;-65
2021/07/13 08:19:23;;;;;;;8.20;6.92;;;;;;;27.19;60.53;97914.55;1790029;79;21459;-63
2021/07/13 08:21:50;;;;;;;7.28;6.67;;;;;;;27.23;61.03;97918.67;1790178;79;21423;-63
2021/07/13 08:24:18;;;;;;;8.33;6.53;;;;;;;27.29;60.29;97918.42;1789177;80;21502;-60
2021/07/13 08:26:46;;;;;;;7.28;6.53;;;;;;;27.35;60.32;97911.31;1789715;80;20920;-60
2021/07/13 08:29:13;;;;;;;7.55;6.40;;;;;;;27.41;59.60;97920.75;1810190;77;20984;-61
2021/07/13 08:31:41;;;;;;;6.67;6.12;;;;;;;27.46;59.92;97918.33;1848215;77;20960;-62
2021/07/13 08:34:08;;;;;;;9.88;6.47;;;;;;;27.53;59.89;97920.28;1847977;77;21041;-66
2021/07/13 08:36:35;;;;;;;7.00;6.30;;;;;;;27.60;59.83;97931.23;1844045;77;21096;-61
2021/07/13 08:39:02;;;;;;;7.42;6.30;;;;;;;27.65;59.23;97928.81;1831837;77;20995;-60
2021/07/13 08:41:30;;;;;;;10.10;6.72;;;;;;;27.71;59.33;97926.43;1819749;78;21032;-63
2021/07/13 08:43:58;;;;;;;7.75;6.03;;;;;;;27.74;58.26;97931.12;1820593;78;20929;-60
2021/07/13 08:46:26;;;;;;;8.38;6.25;;;;;;;27.78;57.79;97939.55;1821025;78;20870;-59
2021/07/13 08:48:54;;;;;;;7.10;5.72;;;;;;;27.82;58.17;97934.00;1820927;78;21989;-63
2021/07/13 08:51:24;;;;;;;10.00;6.50;;;;;;;27.87;57.69;97926.69;1820540;78;20937;-60
2021/07/13 08:53:51;;;;;;;8.35;6.42;;;;;;;27.96;57.93;97933.89;1820802;78;20968;-64
2021/07/13 08:56:19;;;;;;;8.33;5.87;;;;;;;28.02;57.30;97929.56;1796426;78;21346;-63
2021/07/13 08:58:48;;;;;;;8.85;6.10;;;;;;;28.08;57.32;97935.39;1821137;78;20866;-63
2021/07/13 09:01:16;;;;;;;9.78;6.05;;;;;;;28.15;57.16;97923.73;1793566;78;21058;-65
2021/07/13 09:03:58;;;;;;;8.93;5.78;;;;;;;28.20;56.21;97927.42;1822901;78;20972;-64
2021/07/13 09:06:28;;;;;;;7.55;5.80;;;;;;;28.23;55.67;97925.23;1825324;77;26508;-63
2021/07/13 09:08:56;;;;;;;8.35;5.50;;;;;;;28.26;56.13;97924.41;1757533;79;21094;-61
2021/07/13 09:11:24;;;;;;;8.58;6.45;;;;;;;28.34;55.76;97927.28;1803995;79;21021;-64
2021/07/13 09:13:58;;;;;;;9.03;6.17;;;;;;;28.42;56.77;97925.25;1803746;79;21685;-66
2021/07/13 09:16:30;;;;;;;6.80;5.87;;;;;;;28.51;56.81;97919.24;1804019;79;20986;-63
2021/07/13 09:18:58;;;;;;;8.18;5.75;;;;;;;28.58;56.56;97915.82;1804194;79;20970;-61
2021/07/13 09:21:33;;;;;;;8.28;6.28;;;;;;;28.67;56.55;97914.77;1804177;79;20990;-59
2021/07/13 09:24:20;;;;;;;6.28;5.50;;;;;;;28.73;55.48;97916.48;1805181;79;20986;-64
2021/07/13 09:26:56;;;;;;;7.35;5.75;;;;;;;28.79;55.15;97913.45;1805136;79;21130;-65
2021/07/13 09:29:34;;;;;;;8.10;5.30;;;;;;;28.86;54.38;97916.11;1805223;79;20931;-67
2021/07/13 09:32:33;;;;;;;6.75;5.22;;;;;;;28.93;54.99;97921.54;1805003;79;20915;-62
2021/07/13 09:35:11;;;;;;;6.33;5.08;;;;;;;29.02;53.85;97916.30;1804843;79;20939;-64
2021/07/13 09:37:43;;;;;;;9.88;5.55;;;;;;;29.11;52.36;97917.98;1805127;79;21529;-64
2021/07/13 09:40:16;;;;;;;8.38;5.37;;;;;;;29.17;52.95;97914.93;1825424;78;21074;-64
2021/07/13 09:42:49;;;;;;;6.33;5.17;;;;;;;29.25;52.75;97917.03;1837556;78;20978;-63
2021/07/13 09:45:31;;;;;;;7.60;5.30;;;;;;;29.29;52.00;97918.55;1816065;78;21395;-65
2021/07/13 09:48:12;;;;;;;7.30;5.00;;;;;;;29.29;51.52;97924.06;1837360;78;20968;-66
2021/07/13 09:50:44;;;;;;;6.33;4.78;;;;;;;29.36;51.28;97917.06;1811339;78;21432;-63
2021/07/13 09:53:16;;;;;;;6.42;4.83;;;;;;;29.42;51.24;97918.77;1814912;79;21087;-63
2021/07/13 09:55:45;;;;;;;8.40;4.72;;;;;;;29.53;51.33;97920.17;1815665;79;20905;-69
2021/07/13 09:58:23;;;;;;;8.30;4.90;;;;;;;29.60;50.62;97924.80;1849900;77;21467;-64
2021/07/13 10:00:58;;;;;;;7.35;5.08;;;;;;;29.67;50.30;97928.23;1781655;79;20963;-62
2021/07/13 10:03:27;;;;;;;5.87;4.50;;;;;;;29.72;50.02;97922.22;1786969;79;21296;-60
2021/07/13 10:05:54;;;;;;;6.00;4.70;;;;;;;29.77;50.55;97920.40;1781209;80;21068;-60
2021/07/13 10:08:22;;;;;;;5.90;4.58;;;;;;;29.87;49.39;97919.27;1781448;80;20904;-61
2021/07/13 10:10:49;;;;;;;5.95;4.40;;;;;;;29.85;48.26;97918.91;1781200;80;20990;-61
2021/07/13 10:13:17;;;;;;;5.55;4.40;;;;;;;29.81;48.16;97920.36;1809635;79;20881;-59
2021/07/13 10:15:44;;;;;;;7.12;4.60;;;;;;;29.84;47.84;97915.98;1812730;78;20980;-61
2021/07/13 10:18:12;;;;;;;5.03;4.22;;;;;;;29.89;47.63;97922.41;1803788;78;21736;-60
2021/07/13 10:20:39;;;;;;;7.08;4.30;;;;;;;29.92;47.81;97923.72;1788376;80;20997;-63
2021/07/13 10:23:10;;;;;;;6.85;3.92;;;;;;;29.91;47.13;97917.25;1761893;80;21386;-61
2021/07/13 10:25:40;;;;;;;6.95;3.70;;;;;;;29.92;46.89;97918.79;1787761;80;20977;-60
2021/07/13 10:28:07;;;;;;;5.58;4.37;;;;;;;29.97;44.89;97915.55;1785889;80;20871;-63
2021/07/13 10:30:39;;;;;;;4.17;3.67;;;;;;;30.06;46.42;97908.89;1791661;78;21228;-61
2021/07/13 10:33:35;;;;;;;3.77;3.35;;;;;;;30.11;44.47;97910.58;1767174;81;21366;-61
2021/07/13 10:36:28;;;;;;;;;;;;;;;30.17;43.94;97915.03;1794654;80;20930;-63
2021/07/13 10:39:30;;;;;;;4.60;3.83;;;;;;;30.26;44.04;97911.11;1791669;80;20073;-62
2021/07/13 10:42:01;;;;;;;5.42;3.98;;;;;;;30.30;45.49;97909.84;1791783;80;20913;-63
2021/07/13 10:44:44;;;;;;;5.95;4.00;;;;;;;30.35;45.46;97905.84;1819682;79;21876;-62
2021/07/13 10:47:27;;;;;;;4.83;3.90;;;;;;;30.36;44.74;97905.41;1788341;80;20973;-59
2021/07/13 10:50:25;;;;;;;6.97;4.35;;;;;;;30.33;45.05;97900.75;1820212;79;20861;-60
2021/07/13 10:53:06;;;;;;;6.00;4.30;;;;;;;30.29;45.48;97901.37;1788379;80;20966;-63
2021/07/13 10:55:38;;;;;;;5.35;4.10;;;;;;;30.30;45.25;97902.16;1819702;78;20967;-65
2021/07/13 10:58:16;;;;;;;4.50;4.10;;;;;;;30.30;45.89;97896.03;1768983;81;21146;-70
2021/07/13 11:01:03;;;;;;;5.00;3.90;;;;;;;30.32;45.33;97906.65;1791370;80;21448;-64
2021/07/13 11:03:38;;;;;;;4.80;3.47;;;;;;;30.31;44.44;97910.01;1737891;80;20988;-65
2021/07/13 11:06:19;;;;;;;5.15;3.72;;;;;;;30.29;44.15;97910.28;1791641;80;20894;-67
2021/07/13 11:08:50;;;;;;;7.03;4.42;;;;;;;30.35;43.81;97905.84;1791674;80;21440;-63
2021/07/13 11:11:35;;;;;;;6.53;4.55;;;;;;;30.42;44.64;97909.27;1791610;80;21093;-66
2021/07/13 11:14:05;;;;;;;8.18;4.37;;;;;;;30.41;45.49;97905.52;1791556;80;21005;-64
2021/07/13 11:16:35;;;;;;;6.40;4.33;;;;;;;30.45;46.20;97904.87;1791584;80;20925;-68
2021/07/13 11:19:12;;;;;;;7.83;5.00;;;;;;;30.52;46.52;97901.98;1791459;80;21455;-67
2021/07/13 11:21:44;;;;;;;6.53;4.60;;;;;;;30.60;46.61;97897.85;1791511;80;21027;-61
2021/07/13 11:24:20;;;;;;;7.53;4.15;;;;;;;30.68;45.40;97899.29;1791690;80;21460;-61
2021/07/13 11:26:52;;;;;;;5.40;4.12;;;;;;;30.75;45.28;97901.91;1791557;80;20978;-62
2021/07/13 11:29:28;;;;;;;5.85;4.12;;;;;;;30.84;44.75;97895.80;1791663;80;20968;-60
2021/07/13 11:32:02;;;;;;;4.67;4.20;;;;;;;30.93;44.86;97898.80;1800676;78;20871;-60
2021/07/13 11:34:37;;;;;;;6.90;4.17;;;;;;;31.06;44.53;97897.74;1828041;78;20896;-62
2021/07/13 11:37:05;;;;;;;6.42;4.42;;;;;;;31.25;44.95;97904.45;1827939;78;21078;-64
2021/07/13 11:39:38;;;;;;;7.42;4.90;;;;;;;31.42;44.86;97898.34;1827897;78;20873;-62
2021/07/13 11:42:09;;;;;;;6.50;4.33;;;;;;;31.61;43.76;97901.66;1827961;78;21461;-60
2021/07/13 11:44:38;;;;;;;4.65;4.20;;;;;;;31.71;43.77;97896.47;1834647;77;20860;-63
2021/07/13 11:47:10;;;;;;;4.58;3.67;;;;;;;31.84;43.86;97897.36;1830921;77;21348;-61
2021/07/13 11:49:37;;;;;;;6.05;4.42;;;;;;;32.02;44.22;97888.63;1835536;77;21119;-62
2021/07/13 11:52:14;;;;;;;4.83;4.28;;;;;;;32.11;44.28;97886.80;1853205;77;20902;-60
2021/07/13 11:54:47;;;;;;;5.42;4.00;;;;;;;32.12;43.68;97884.20;1853258;77;20969;-61
2021/07/13 11:57:18;;;;;;;4.95;3.80;;;;;;;32.25;43.84;97881.48;1853250;77;21488;-65
2021/07/13 11:59:43;;;;;;;5.10;4.00;;;;;;;32.40;42.85;97874.35;1852994;77;21334;-60
2021/07/13 12:02:11;;;;;;;4.75;4.25;;;;;;;32.60;43.02;97867.31;1768259;78;21018;-62
2021/07/13 12:04:49;;;;;;;6.53;4.00;;;;;;;32.77;41.55;97870.95;1850487;77;20868;-60
2021/07/13 12:07:19;;;;;;;4.65;3.77;;;;;;;32.94;41.00;97871.05;1825345;77;21452;-64
2021/07/13 12:09:47;;;;;;;4.65;4.03;;;;;;;33.08;40.14;97865.72;1825150;78;20912;-63
2021/07/13 12:12:17;;;;;;;10.30;4.25;;;;;;;33.22;39.42;97869.44;1825175;78;20873;-60
2021/07/13 12:14:52;;;;;;;6.75;4.30;;;;;;;33.36;40.21;97875.16;1825142;78;21166;-64
2021/07/13 12:17:24;;;;;;;6.20;3.90;;;;;;;33.55;39.81;97870.80;1825358;78;21364;-63
2021/07/13 12:19:53;;;;;;;4.58;3.40;;;;;;;33.75;39.68;97867.16;1816434;79;20939;-64
2021/07/13 12:22:21;;;;;;;5.12;3.42;;;;;;;33.96;38.84;97866.30;1796489;77;20932;-61
2021/07/13 12:24:49;;;;;;;5.15;3.47;;;;;;;34.10;39.02;97864.46;1815525;79;20845;-62
2021/07/13 12:27:18;;;;;;;5.25;3.60;;;;;;;34.21;38.16;97862.08;1852838;77;21109;-62
2021/07/13 12:29:55;;;;;;;4.70;3.55;;;;;;;34.12;37.71;97861.39;1814978;79;20861;-62
2021/07/13 12:32:29;;;;;;;4.80;3.75;;;;;;;34.02;37.90;97853.38;1850145;77;21407;-63
2021/07/13 12:34:58;;;;;;;5.83;3.42;;;;;;;34.07;38.00;97854.23;1816819;79;21558;-64
2021/07/13 12:37:29;;;;;;;6.90;3.30;;;;;;;34.20;37.24;97853.59;1788237;79;20872;-59
2021/07/13 12:40:07;;;;;;;5.95;3.55;;;;;;;34.36;37.79;97849.25;1852966;77;20898;-61
2021/07/13 12:42:38;;;;;;;4.37;3.27;;;;;;;34.50;37.11;97848.73;1849993;77;20892;-62
2021/07/13 12:45:19;;;;;;;4.60;3.50;;;;;;;34.60;37.16;97839.23;1815566;79;21328;-64
2021/07/13 12:47:48;;;;;;;4.70;3.55;;;;;;;34.73;36.51;97839.17;1850276;77;21403;-65
2021/07/13 12:50:27;;;;;;;3.75;3.40;;;;;;;34.70;36.71;97838.08;1815108;79;20841;-63
2021/07/13 12:53:08;;;;;;;4.37;3.33;;;;;;;34.47;36.20;97842.68;1850009;77;21095;-68
2021/07/13 12:55:40;;;;;;;7.00;3.80;;;;;;;34.14;36.73;97831.76;1815428;79;20829;-64
2021/07/13 12:58:17;;;;;;;5.47;3.45;;;;;;;33.76;37.92;97833.23;1850372;77;20825;-63
2021/07/13 13:01:00;;;;;;;5.10;3.92;;;;;;;33.40;38.33;97839.13;1815497;79;20940;-63
2021/07/13 13:03:37;;;;;;;6.27;3.63;;;;;;;33.13;39.75;97831.88;1799516;77;20936;-63
2021/07/13 13:06:08;;;;;;;4.58;3.80;;;;;;;33.11;39.46;97842.64;1801635;78;21466;-63
2021/07/13 13:08:39;;;;;;;6.25;3.77;;;;;;;32.94;39.38;97842.53;1806365;78;20931;-63
2021/07/13 13:11:23;;;;;;;5.03;3.77;;;;;;;32.77;40.01;97843.83;1804108;78;20919;-61
2021/07/13 13:14:03;;;;;;;5.78;3.85;;;;;;;32.56;40.71;97835.52;1823928;78;20970;-66
2021/07/13 13:16:38;;;;;;;5.55;3.75;;;;;;;32.51;40.60;97835.27;1823253;78;21046;-69
2021/07/13 13:19:05;;;;;;;5.35;3.80;;;;;;;32.78;40.38;97838.46;1824048;78;21236;-68
2021/07/13 13:21:33;;;;;;;6.95;3.92;;;;;;;32.86;40.23;97835.63;1823889;78;20950;-65
2021/07/13 13:24:03;;;;;;;5.50;3.67;;;;;;;32.88;40.70;97837.37;1823725;78;20967;-66
2021/07/13 13:26:32;;;;;;;7.12;4.00;;;;;;;33.17;41.32;97840.07;1825010;78;20904;-63
2021/07/13 13:28:59;;;;;;;9.18;4.58;;;;;;;33.22;41.39;97837.53;1825066;78;21102;-64
2021/07/13 13:31:25;;;;;;;6.85;3.92;;;;;;;33.02;41.96;97840.51;1826003;78;21109;-64
2021/07/13 13:33:53;;;;;;;9.65;4.65;;;;;;;32.69;42.29;97830.80;1826424;78;20908;-67
2021/07/13 13:38:55;;;;;;;7.12;4.10;;;;;;;31.93;44.02;97839.36;1824672;78;21522;-60
2021/07/13 13:41:16;;;;;;;5.35;4.25;;;;;;;31.87;43.47;97836.93;1823153;78;21098;-64
2021/07/13 13:43:43;;;;;;;7.20;3.87;;;;;;;32.08;43.04;97835.66;1824848;78;21105;-61
2021/07/13 13:46:10;;;;;;;4.95;3.80;;;;;;;32.44;42.65;97827.91;1824784;78;21093;-63
2021/07/13 13:48:37;;;;;;;6.35;4.00;;;;;;;32.79;42.40;97820.58;1824811;78;21542;-64
2021/07/13 13:51:04;;;;;;;8.68;3.75;;;;;;;33.13;41.69;97819.99;1824939;78;21062;-65
2021/07/13 13:53:34;;;;;;;5.20;3.58;;;;;;;33.41;41.07;97818.48;1825411;78;21019;-65
2021/07/13 13:56:01;;;;;;;5.20;3.77;;;;;;;33.72;40.52;97814.52;1826180;78;21116;-64
2021/07/13 13:58:28;;;;;;;5.30;3.65;;;;;;;33.98;39.15;97812.45;1826141;78;21435;-64
2021/07/13 14:00:55;;;;;;;5.78;3.47;;;;;;;34.07;38.94;97812.55;1817498;78;20853;-66
2021/07/13 14:03:21;;;;;;;6.25;3.80;;;;;;;34.17;38.62;97816.97;1807995;79;20928;-62
